Time;durP1;ratioP1;P1;durP2;ratioP2;P2;SDS_P1;SDS_P2;PMS_P1;PMS_P2;Temp;Humidity;BMP_temperature;BMP_pressure;BME280_temperature;BME280_humidity;BME280_pressure;Samples;Min_cycle;Max_cycle;Signal;HPM_P1;HPM_P2
2021/03/04 00:00:12;;;;;;;23.20;9.00;;;15.20;57.60;;;;;;5097893;28;20028;-73
2021/03/04 00:02:39;;;;;;;28.02;7.65;;;15.10;57.90;;;;;;5092096;28;20027;-73
2021/03/04 00:05:08;;;;;;;27.63;6.78;;;15.00;58.10;;;;;;5099558;28;20028;-75
2021/03/04 00:07:36;;;;;;;23.83;8.07;;;15.00;57.80;;;;;;5101674;28;20020;-71
2021/03/04 00:10:06;;;;;;;34.08;6.97;;;15.00;57.50;;;;;;5100284;28;20018;-71
2021/03/04 00:12:32;;;;;;;20.95;6.38;;;15.10;56.90;;;;;;5101506;28;20024;-71
2021/03/04 00:14:59;;;;;;;25.52;7.70;;;15.10;56.90;;;;;;5098262;28;20378;-70
2021/03/04 00:17:25;;;;;;;25.50;6.97;;;15.00;57.50;;;;;;5102968;28;20029;-71
2021/03/04 00:19:52;;;;;;;22.27;6.93;;;15.10;56.70;;;;;;5105165;28;20040;-72
2021/03/04 00:22:18;;;;;;;31.83;7.35;;;15.00;56.50;;;;;;5108154;28;20128;-72
2021/03/04 00:24:45;;;;;;;30.95;8.35;;;14.90;56.80;;;;;;5105204;28;20032;-72
2021/03/04 00:27:11;;;;;;;22.83;6.72;;;15.00;56.70;;;;;;5098938;28;20095;-73
2021/03/04 00:29:37;;;;;;;27.60;7.68;;;15.00;56.20;;;;;;5101497;28;20019;-72
2021/03/04 00:32:04;;;;;;;23.15;5.60;;;15.00;56.20;;;;;;5105334;28;20445;-71
2021/03/04 00:34:30;;;;;;;32.65;8.00;;;15.00;55.80;;;;;;5097433;28;20031;-72
2021/03/04 00:36:57;;;;;;;20.65;6.70;;;15.20;54.90;;;;;;5098826;28;20504;-71
2021/03/04 00:39:23;;;;;;;26.85;7.03;;;15.20;54.80;;;;;;5101837;28;20488;-72
2021/03/04 00:41:50;;;;;;;20.83;6.20;;;15.20;54.90;;;;;;5106606;28;20019;-70
2021/03/04 00:44:16;;;;;;;19.73;6.32;;;15.30;54.40;;;;;;5101576;28;20086;-72
2021/03/04 00:46:43;;;;;;;24.10;7.68;;;15.40;53.40;;;;;;5099192;28;20103;-72
2021/03/04 00:49:09;;;;;;;23.38;7.25;;;15.40;53.50;;;;;;5102281;28;20134;-73
2021/03/04 00:51:36;;;;;;;29.00;8.50;;;15.60;53.20;;;;;;5103564;28;20077;-72
2021/03/04 00:54:02;;;;;;;32.95;7.25;;;15.60;52.80;;;;;;5103621;28;20051;-72
2021/03/04 00:56:29;;;;;;;36.03;8.38;;;15.60;52.60;;;;;;5095895;28;20050;-72
2021/03/04 00:58:55;;;;;;;25.50;8.73;;;15.60;52.60;;;;;;5097571;28;20032;-74
2021/03/04 01:01:21;;;;;;;40.53;9.40;;;15.60;52.90;;;;;;5106603;28;20047;-72
2021/03/04 01:03:48;;;;;;;37.10;9.88;;;15.50;53.30;;;;;;5094112;28;20346;-72
2021/03/04 01:06:15;;;;;;;29.08;7.63;;;15.30;53.40;;;;;;5096239;28;20032;-73
2021/03/04 01:08:41;;;;;;;32.58;9.27;;;15.20;53.90;;;;;;5092731;28;20019;-69
2021/03/04 01:11:08;;;;;;;30.45;9.32;;;15.10;54.40;;;;;;5104489;28;20020;-72
2021/03/04 01:13:34;;;;;;;31.58;10.30;;;14.80;55.10;;;;;;5105368;28;20035;-72
2021/03/04 01:16:01;;;;;;;33.90;9.45;;;14.80;55.30;;;;;;5106661;28;20027;-72
2021/03/04 01:18:28;;;;;;;33.72;9.20;;;14.70;55.60;;;;;;5106446;28;20032;-72
2021/03/04 01:20:55;;;;;;;30.33;7.32;;;14.70;55.50;;;;;;5097708;28;20424;-72
2021/03/04 01:23:21;;;;;;;26.40;7.90;;;14.60;55.80;;;;;;5097992;28;20026;-73
2021/03/04 01:25:47;;;;;;;37.85;9.95;;;14.80;55.80;;;;;;5105537;28;20119;-73
2021/03/04 01:28:15;;;;;;;39.70;8.55;;;14.70;55.70;;;;;;5105880;28;20031;-74
2021/03/04 01:30:41;;;;;;;30.42;10.07;;;14.70;55.70;;;;;;5103091;28;20024;-72
2021/03/04 01:33:08;;;;;;;27.48;9.18;;;14.60;56.40;;;;;;5102890;28;20471;-72
2021/03/04 01:35:35;;;;;;;32.35;8.60;;;14.50;56.10;;;;;;5103755;28;20085;-72
2021/03/04 01:38:01;;;;;;;33.97;9.30;;;14.50;56.60;;;;;;5100091;28;20027;-71
2021/03/04 01:40:28;;;;;;;38.72;9.15;;;14.40;56.40;;;;;;5105546;28;20036;-72
2021/03/04 01:42:55;;;;;;;36.60;9.38;;;14.40;56.10;;;;;;5097125;28;20070;-72
2021/03/04 01:45:21;;;;;;;34.95;9.20;;;14.30;56.40;;;;;;5103114;28;20059;-72
2021/03/04 01:47:50;;;;;;;28.42;8.43;;;14.30;56.30;;;;;;5096554;28;20415;-74
2021/03/04 01:50:17;;;;;;;42.45;10.40;;;14.30;56.30;;;;;;5100100;28;20089;-73
2021/03/04 01:52:44;;;;;;;38.63;9.80;;;14.20;57.30;;;;;;5098906;28;20473;-73
2021/03/04 01:55:14;;;;;;;27.17;8.98;;;14.20;57.10;;;;;;5103713;28;20453;-72
2021/03/04 01:57:42;;;;;;;29.50;9.70;;;14.20;57.30;;;;;;5104660;28;20069;-73
2021/03/04 02:00:10;;;;;;;35.90;8.65;;;14.10;57.40;;;;;;5099637;28;20468;-72
2021/03/04 02:02:37;;;;;;;32.63;8.93;;;14.00;58.00;;;;;;5086753;28;20042;-73
2021/03/04 02:05:08;;;;;;;34.50;8.82;;;14.10;58.20;;;;;;5103741;28;20031;-74
2021/03/04 02:08:01;;;;;;;42.08;8.50;;;14.00;58.30;;;;;;5098535;28;20058;-72
2021/03/04 02:10:34;;;;;;;32.95;11.90;;;14.00;58.00;;;;;;5097881;28;20122;-71
2021/03/04 02:13:17;;;;;;;25.92;8.07;;;14.00;58.40;;;;;;5093832;28;20370;-72
2021/03/04 02:15:59;;;;;;;30.15;9.88;;;14.00;58.80;;;;;;5097107;28;20028;-72
2021/03/04 02:18:29;;;;;;;40.03;9.48;;;14.00;59.30;;;;;;5100375;28;20067;-72
2021/03/04 02:21:32;;;;;;;32.83;9.57;;;14.00;59.10;;;;;;5098117;28;20059;-72
2021/03/04 02:24:27;;;;;;;30.83;9.15;;;14.00;59.70;;;;;;5089398;28;20550;-71
2021/03/04 02:27:13;;;;;;;30.30;9.75;;;14.00;59.90;;;;;;5099307;28;20028;-72
2021/03/04 02:30:05;;;;;;;50.90;10.00;;;13.90;59.50;;;;;;5100564;28;20035;-71
2021/03/04 02:32:33;;;;;;;36.20;9.95;;;13.90;60.10;;;;;;5104003;28;20036;-72
2021/03/04 02:35:08;;;;;;;35.53;10.30;;;13.80;60.40;;;;;;5098011;28;20027;-72
2021/03/04 02:37:40;;;;;;;38.63;10.00;;;13.70;60.40;;;;;;5089745;28;20059;-73
2021/03/04 02:40:10;;;;;;;44.42;9.65;;;13.60;60.40;;;;;;5096099;28;20016;-71
2021/03/04 02:42:39;;;;;;;31.20;9.18;;;13.60;60.00;;;;;;5103741;28;20027;-73
2021/03/04 02:45:08;;;;;;;42.42;10.27;;;13.60;60.50;;;;;;5098605;28;20039;-72
2021/03/04 02:47:38;;;;;;;40.28;9.75;;;13.40;60.10;;;;;;5096508;28;20077;-73
2021/03/04 02:50:06;;;;;;;52.97;11.55;;;13.50;61.10;;;;;;5100232;28;20029;-71
2021/03/04 02:52:33;;;;;;;43.33;14.98;;;13.50;60.20;;;;;;5103307;28;20019;-72
2021/03/04 02:55:01;;;;;;;32.53;8.23;;;13.40;60.00;;;;;;5101261;28;20035;-71
2021/03/04 02:57:29;;;;;;;37.97;9.43;;;13.30;60.20;;;;;;5101821;28;20033;-71
2021/03/04 02:59:57;;;;;;;35.08;11.57;;;13.30;60.20;;;;;;5101263;28;20463;-72
2021/03/04 03:02:24;;;;;;;43.63;9.50;;;13.20;60.50;;;;;;5101360;28;20473;-70
2021/03/04 03:04:52;;;;;;;71.07;23.23;;;13.30;60.00;;;;;;5102876;28;20047;-71
2021/03/04 03:07:18;;;;;;;42.00;12.82;;;13.50;60.30;;;;;;5101144;28;20019;-72
2021/03/04 03:09:46;;;;;;;41.28;9.75;;;13.40;59.60;;;;;;5101979;28;20522;-72
2021/03/04 03:12:14;;;;;;;44.50;9.90;;;13.40;59.70;;;;;;5102635;28;20083;-72
2021/03/04 03:14:41;;;;;;;31.42;8.35;;;13.40;59.20;;;;;;5099401;28;20081;-71
2021/03/04 03:17:09;;;;;;;39.63;9.23;;;13.40;59.50;;;;;;5102201;28;20015;-71
2021/03/04 03:19:35;;;;;;;31.65;9.02;;;13.60;59.70;;;;;;5100712;28;20035;-73
2021/03/04 03:22:02;;;;;;;34.05;8.98;;;13.60;59.40;;;;;;5098348;28;20024;-72
2021/03/04 03:24:29;;;;;;;34.03;7.90;;;13.70;59.20;;;;;;5098360;28;20016;-71
2021/03/04 03:26:55;;;;;;;35.72;9.27;;;13.60;58.70;;;;;;5088555;28;20358;-72
2021/03/04 03:29:22;;;;;;;36.00;9.40;;;13.60;59.20;;;;;;5091616;28;20032;-72
2021/03/04 03:31:51;;;;;;;31.92;10.13;;;13.50;58.90;;;;;;5093529;28;20024;-71
2021/03/04 03:34:18;;;;;;;28.13;7.50;;;13.50;59.60;;;;;;5097475;28;20094;-72
2021/03/04 03:36:45;;;;;;;34.80;9.38;;;13.40;58.90;;;;;;5105980;28;20120;-71
2021/03/04 03:39:13;;;;;;;35.10;8.25;;;13.40;59.50;;;;;;5103112;28;20051;-72
2021/03/04 03:41:42;;;;;;;34.53;8.55;;;13.40;59.20;;;;;;5104779;28;20023;-72
2021/03/04 03:44:12;;;;;;;25.33;8.02;;;13.30;59.60;;;;;;5105451;28;20028;-72
2021/03/04 03:46:39;;;;;;;34.10;8.30;;;13.30;59.90;;;;;;5106179;28;20028;-73
2021/03/04 03:49:07;;;;;;;28.77;7.78;;;13.30;59.80;;;;;;5107389;28;20484;-72
2021/03/04 03:51:34;;;;;;;34.35;9.75;;;13.20;59.90;;;;;;5103020;28;20016;-73
2021/03/04 03:54:06;;;;;;;21.95;6.97;;;13.30;60.10;;;;;;5107219;28;20043;-73
2021/03/04 03:56:36;;;;;;;44.63;9.35;;;13.20;60.20;;;;;;5107310;28;20024;-72
2021/03/04 03:59:04;;;;;;;45.03;12.07;;;13.20;60.20;;;;;;5103180;28;20035;-72
2021/03/04 04:01:33;;;;;;;34.42;7.32;;;13.10;60.70;;;;;;5104124;28;20028;-72
2021/03/04 04:04:00;;;;;;;33.47;7.68;;;13.10;60.60;;;;;;5104920;28;20024;-72
2021/03/04 04:06:31;;;;;;;28.10;9.02;;;13.20;60.60;;;;;;5104850;28;20024;-74
2021/03/04 04:08:59;;;;;;;27.95;7.40;;;13.10;60.50;;;;;;5104502;28;20062;-73
2021/03/04 04:11:27;;;;;;;37.67;10.75;;;13.10;60.20;;;;;;5096583;28;20116;-72
2021/03/04 04:13:54;;;;;;;38.25;9.25;;;13.10;60.30;;;;;;5102458;28;20036;-72
2021/03/04 04:16:21;;;;;;;29.30;9.95;;;13.10;61.00;;;;;;5100092;28;20115;-73
2021/03/04 04:18:48;;;;;;;33.45;9.02;;;13.00;60.80;;;;;;5095269;28;20092;-73
2021/03/04 04:21:15;;;;;;;33.75;8.25;;;13.00;60.70;;;;;;5105361;28;20114;-72
2021/03/04 04:23:43;;;;;;;32.25;9.18;;;13.00;60.80;;;;;;5104940;28;20024;-73
2021/03/04 04:26:11;;;;;;;34.05;9.45;;;13.00;60.60;;;;;;5108071;28;20120;-73
2021/03/04 04:28:37;;;;;;;31.70;9.60;;;13.00;60.90;;;;;;5106182;28;20035;-72
2021/03/04 04:31:04;;;;;;;39.38;8.43;;;13.00;60.70;;;;;;5105661;28;20038;-72
2021/03/04 04:33:31;;;;;;;31.38;8.25;;;13.10;60.30;;;;;;5099109;28;20038;-73
2021/03/04 04:35:58;;;;;;;33.42;8.27;;;13.10;60.30;;;;;;5089405;28;20043;-71
2021/03/04 04:38:25;;;;;;;30.33;7.22;;;13.00;60.00;;;;;;5098285;28;20051;-71
2021/03/04 04:40:52;;;;;;;34.10;7.45;;;12.80;59.90;;;;;;5096111;28;20374;-73
2021/03/04 04:43:18;;;;;;;38.63;7.93;;;12.90;60.30;;;;;;5092966;27;20104;-71
2021/03/04 04:45:45;;;;;;;56.83;9.90;;;12.90;59.90;;;;;;5091697;28;20119;-72
2021/03/04 04:48:11;;;;;;;38.17;7.18;;;12.80;60.10;;;;;;5091004;28;20032;-71
2021/03/04 04:50:38;;;;;;;40.20;9.38;;;12.80;60.30;;;;;;5098670;28;20363;-72
2021/03/04 04:53:04;;;;;;;24.80;6.18;;;12.80;59.70;;;;;;5100340;28;20857;-72
2021/03/04 04:55:31;;;;;;;34.80;7.75;;;12.70;60.50;;;;;;5098621;28;20028;-72
2021/03/04 04:57:58;;;;;;;35.15;9.57;;;12.70;59.80;;;;;;5103628;28;20024;-73
2021/03/04 05:00:24;;;;;;;27.40;8.13;;;12.70;60.60;;;;;;5102801;28;20038;-72
2021/03/04 05:02:51;;;;;;;28.83;8.05;;;12.70;60.30;;;;;;5102077;28;20106;-72
2021/03/04 05:05:17;;;;;;;26.65;7.40;;;12.90;60.50;;;;;;5103878;28;20113;-71
2021/03/04 05:07:44;;;;;;;39.97;10.02;;;12.70;60.20;;;;;;5101421;28;20020;-73
2021/03/04 05:10:11;;;;;;;33.67;7.80;;;12.70;59.90;;;;;;5104135;28;20384;-73
2021/03/04 05:12:37;;;;;;;42.20;8.13;;;12.70;59.90;;;;;;5093662;28;20031;-72
2021/03/04 05:15:06;;;;;;;35.22;8.57;;;12.70;60.40;;;;;;5100208;28;20489;-72
2021/03/04 05:17:34;;;;;;;33.05;8.65;;;12.80;60.00;;;;;;5093089;28;20028;-72
2021/03/04 05:20:01;;;;;;;30.88;7.13;;;12.60;60.40;;;;;;5106500;27;20035;-71
2021/03/04 05:22:27;;;;;;;33.40;10.18;;;12.60;60.10;;;;;;5100710;28;20024;-72
2021/03/04 05:24:53;;;;;;;42.70;9.80;;;12.50;60.00;;;;;;5102204;28;20084;-72
2021/03/04 05:27:22;;;;;;;33.80;7.90;;;12.30;60.00;;;;;;5092960;28;20031;-72
2021/03/04 05:29:49;;;;;;;40.30;9.00;;;12.50;60.20;;;;;;5094405;28;20028;-72
2021/03/04 05:32:17;;;;;;;36.80;7.93;;;12.40;60.00;;;;;;5094595;28;20020;-72
2021/03/04 05:34:44;;;;;;;43.22;9.80;;;12.40;60.30;;;;;;5098561;28;20039;-72
2021/03/04 05:37:11;;;;;;;34.13;6.93;;;12.40;60.20;;;;;;5100282;28;20111;-73
2021/03/04 05:39:37;;;;;;;34.92;9.15;;;12.30;59.90;;;;;;5096494;28;20069;-72
2021/03/04 05:42:09;;;;;;;29.83;8.57;;;12.30;60.20;;;;;;5098007;28;20025;-72
2021/03/04 05:44:36;;;;;;;27.02;8.48;;;12.30;60.00;;;;;;5102852;28;20082;-72
2021/03/04 05:47:06;;;;;;;36.20;7.97;;;12.30;60.00;;;;;;5100421;28;20016;-72
2021/03/04 05:49:40;;;;;;;23.85;7.93;;;12.20;60.20;;;;;;5098849;28;20049;-72
2021/03/04 05:52:09;;;;;;;28.77;9.18;;;12.10;60.30;;;;;;5097197;28;20012;-72
2021/03/04 05:54:40;;;;;;;55.30;22.05;;;12.10;60.40;;;;;;5103178;28;20054;-72
2021/03/04 05:57:08;;;;;;;52.78;23.15;;;11.90;60.20;;;;;;5103674;28;20019;-73
2021/03/04 05:59:35;;;;;;;77.60;38.45;;;11.80;60.50;;;;;;5103124;28;20016;-72
2021/03/04 06:02:06;;;;;;;66.85;26.10;;;11.70;60.70;;;;;;5104200;28;20103;-72
2021/03/04 06:04:32;;;;;;;38.92;11.18;;;11.80;60.20;;;;;;5095153;28;20147;-72
2021/03/04 06:06:59;;;;;;;46.10;15.45;;;12.00;61.40;;;;;;5095398;28;20106;-72
2021/03/04 06:09:28;;;;;;;40.10;8.98;;;12.30;60.60;;;;;;5093480;28;20023;-72
2021/03/04 06:12:04;;;;;;;34.10;9.18;;;12.30;61.00;;;;;;5105890;28;20027;-75
2021/03/04 06:14:34;;;;;;;45.33;9.15;;;12.20;60.00;;;;;;5099556;28;20028;-72
2021/03/04 06:17:15;;;;;;;42.03;9.15;;;12.20;61.50;;;;;;5102390;28;20016;-72
2021/03/04 06:19:50;;;;;;;41.13;8.85;;;12.10;60.60;;;;;;5099483;28;20024;-72
2021/03/04 06:22:46;;;;;;;58.45;10.88;;;12.20;60.80;;;;;;5095037;28;20047;-72
2021/03/04 06:25:13;;;;;;;38.90;10.00;;;11.90;60.90;;;;;;5096316;28;20078;-72
2021/03/04 06:27:41;;;;;;;38.22;9.43;;;11.90;61.80;;;;;;5095672;28;20020;-73
2021/03/04 06:30:14;;;;;;;40.95;9.18;;;12.00;61.20;;;;;;5102510;28;20093;-72
2021/03/04 06:32:42;;;;;;;38.45;11.77;;;12.10;61.50;;;;;;5093496;28;20024;-74
2021/03/04 06:35:11;;;;;;;48.85;10.07;;;12.20;61.10;;;;;;5097627;28;20033;-72
2021/03/04 06:37:42;;;;;;;33.55;8.65;;;12.00;61.20;;;;;;5096126;28;20055;-73
2021/03/04 06:40:24;;;;;;;36.72;8.88;;;12.00;61.50;;;;;;5096478;28;20142;-73
2021/03/04 06:42:52;;;;;;;39.33;9.45;;;11.90;61.40;;;;;;5093405;28;20084;-75
2021/03/04 06:45:26;;;;;;;37.80;9.77;;;11.90;61.90;;;;;;5099481;28;20035;-72
2021/03/04 06:48:22;;;;;;;32.35;10.57;;;12.00;61.50;;;;;;5102620;28;20350;-72
2021/03/04 06:50:56;;;;;;;38.08;8.80;;;12.10;62.20;;;;;;5099284;28;21329;-72
2021/03/04 06:53:24;;;;;;;52.97;9.55;;;12.00;61.40;;;;;;5102911;28;20012;-73
2021/03/04 06:55:53;;;;;;;50.13;13.52;;;11.90;61.40;;;;;;5098739;28;20035;-72
2021/03/04 06:58:27;;;;;;;36.33;8.73;;;12.00;62.10;;;;;;5101503;28;20039;-73
2021/03/04 07:01:13;;;;;;;47.72;10.75;;;12.00;62.20;;;;;;5099902;28;20059;-72
2021/03/04 07:03:51;;;;;;;46.65;9.88;;;12.00;62.20;;;;;;5102994;28;20400;-72
2021/03/04 07:06:23;;;;;;;30.50;8.20;;;11.90;62.10;;;;;;5099748;28;20107;-72
2021/03/04 07:08:51;;;;;;;35.20;9.50;;;11.90;62.60;;;;;;5100199;28;20488;-73
2021/03/04 07:11:22;;;;;;;38.25;9.07;;;12.10;63.10;;;;;;5097518;28;20050;-72
2021/03/04 07:13:49;;;;;;;45.15;8.98;;;12.00;62.50;;;;;;5097396;28;20042;-72
2021/03/04 07:16:48;;;;;;;35.78;9.40;;;12.00;62.10;;;;;;5097574;28;20111;-73
2021/03/04 07:19:18;;;;;;;33.17;7.85;;;11.90;62.50;;;;;;5094753;28;20672;-73
2021/03/04 07:21:47;;;;;;;35.92;10.57;;;11.90;62.10;;;;;;5085034;28;20134;-73
2021/03/04 07:24:13;;;;;;;30.63;8.07;;;12.00;62.40;;;;;;5095654;28;20015;-73
2021/03/04 07:26:40;;;;;;;39.58;11.57;;;12.00;63.80;;;;;;5102417;28;20161;-73
2021/03/04 07:29:09;;;;;;;34.65;8.93;;;12.10;63.10;;;;;;5102247;28;20830;-73
2021/03/04 07:31:42;;;;;;;33.67;8.13;;;12.00;62.60;;;;;;5100927;28;20027;-73
2021/03/04 07:34:12;;;;;;;;;;;12.10;62.20;;;;;;5093423;28;20457;-72
2021/03/04 07:36:39;;;;;;;31.60;7.97;;;12.00;62.50;;;;;;5098079;28;19908;-73
2021/03/04 07:39:06;;;;;;;38.17;7.28;;;12.10;62.80;;;;;;5098438;28;20039;-73
2021/03/04 07:41:44;;;;;;;26.88;7.88;;;12.00;62.10;;;;;;5101319;28;20383;-73
2021/03/04 07:44:31;;;;;;;39.65;8.50;;;12.10;62.50;;;;;;5098420;28;20044;-73
2021/03/04 07:47:03;;;;;;;27.73;9.35;;;12.10;63.20;;;;;;5097118;28;20044;-73
2021/03/04 07:49:45;;;;;;;23.93;5.93;;;12.10;62.20;;;;;;5095234;28;20028;-72
2021/03/04 07:52:23;;;;;;;29.63;8.27;;;12.00;62.00;;;;;;5094239;28;20021;-73
2021/03/04 07:54:52;;;;;;;40.38;11.27;;;12.00;62.30;;;;;;5099390;28;20036;-73
2021/03/04 07:57:20;;;;;;;35.15;9.77;;;12.30;62.30;;;;;;5102118;28;20024;-74
2021/03/04 07:59:52;;;;;;;42.58;9.10;;;12.20;62.20;;;;;;5100727;28;20024;-74
2021/03/04 08:02:27;;;;;;;34.08;8.43;;;12.30;62.40;;;;;;5099518;28;20793;-73
2021/03/04 08:05:08;;;;;;;36.22;8.75;;;12.40;62.00;;;;;;5101506;28;20111;-73
2021/03/04 08:07:34;;;;;;;39.75;9.02;;;12.30;61.70;;;;;;5100850;28;20033;-74
2021/03/04 08:10:15;;;;;;;32.25;8.43;;;12.20;61.50;;;;;;5101625;28;20390;-75
2021/03/04 08:13:00;;;;;;;33.55;7.70;;;12.10;61.80;;;;;;5100733;28;20039;-74
2021/03/04 08:15:40;;;;;;;30.40;7.43;;;12.20;61.70;;;;;;5097736;28;20019;-72
2021/03/04 08:18:16;;;;;;;22.13;7.15;;;12.30;61.40;;;;;;5104185;28;20100;-72
2021/03/04 08:20:43;;;;;;;31.65;7.45;;;12.10;61.50;;;;;;5104363;28;20101;-73
2021/03/04 08:23:10;;;;;;;24.05;5.97;;;11.90;61.70;;;;;;5104326;28;20464;-72
2021/03/04 08:25:37;;;;;;;33.40;8.82;;;12.10;62.00;;;;;;5105044;28;20024;-73
2021/03/04 08:28:04;;;;;;;25.92;6.07;;;12.10;61.70;;;;;;5095910;28;20032;-73
2021/03/04 08:30:41;;;;;;;35.05;7.47;;;12.10;61.80;;;;;;5098598;28;20022;-73
2021/03/04 08:33:10;;;;;;;30.88;9.05;;;12.20;62.30;;;;;;5101044;28;20118;-72
2021/03/04 08:35:40;;;;;;;28.85;7.28;;;12.20;61.80;;;;;;5104004;28;20031;-72
2021/03/04 08:38:09;;;;;;;27.70;7.28;;;12.20;61.30;;;;;;5104608;28;20024;-73
2021/03/04 08:40:58;;;;;;;26.83;6.85;;;12.30;61.80;;;;;;5098184;28;20031;-73
2021/03/04 08:43:26;;;;;;;22.75;6.20;;;12.30;61.60;;;;;;5105168;28;20116;-73
2021/03/04 08:46:01;;;;;;;21.90;6.75;;;12.20;61.40;;;;;;5102036;28;20020;-72
2021/03/04 08:48:28;;;;;;;20.88;7.68;;;12.30;61.10;;;;;;5103355;28;20028;-72
2021/03/04 08:51:03;;;;;;;28.30;7.72;;;12.30;60.90;;;;;;5103470;28;20066;-72
2021/03/04 08:53:32;;;;;;;30.08;6.75;;;12.20;61.50;;;;;;5103156;28;20103;-72
2021/03/04 08:56:01;;;;;;;25.30;5.57;;;12.40;61.00;;;;;;5104589;28;20029;-73
2021/03/04 08:58:29;;;;;;;25.13;6.25;;;12.20;61.00;;;;;;5101550;28;20020;-72
2021/03/04 09:01:00;;;;;;;25.40;6.85;;;12.20;61.60;;;;;;5099225;28;20023;-72
2021/03/04 09:03:29;;;;;;;31.63;6.20;;;12.20;61.50;;;;;;5104321;28;20579;-72
2021/03/04 09:06:16;;;;;;;24.55;6.40;;;12.30;61.40;;;;;;5098724;28;20030;-73
2021/03/04 09:08:50;;;;;;;30.02;6.35;;;12.30;61.10;;;;;;5101089;28;20028;-73
2021/03/04 09:11:32;;;;;;;28.88;9.40;;;12.40;61.50;;;;;;5102592;28;20017;-72
2021/03/04 09:14:03;;;;;;;21.08;6.47;;;12.40;61.00;;;;;;5101953;28;20015;-73
2021/03/04 09:16:44;;;;;;;30.17;6.72;;;12.40;61.70;;;;;;5104894;28;20520;-72
2021/03/04 09:19:12;;;;;;;36.42;8.50;;;12.40;61.20;;;;;;5097474;28;20125;-72
2021/03/04 09:21:39;;;;;;;34.72;6.40;;;12.30;61.50;;;;;;5101793;28;20017;-72
2021/03/04 09:24:09;;;;;;;22.48;6.68;;;12.40;61.00;;;;;;5096579;28;20020;-73
2021/03/04 09:26:35;;;;;;;26.70;6.55;;;12.30;61.20;;;;;;5102794;28;20050;-73
2021/03/04 09:29:02;;;;;;;25.27;6.80;;;12.40;61.10;;;;;;5102385;28;20039;-74
2021/03/04 09:31:29;;;;;;;24.77;7.28;;;12.30;60.70;;;;;;5101097;28;20458;-74
2021/03/04 09:34:01;;;;;;;30.50;8.52;;;12.30;60.60;;;;;;5103195;28;20115;-73
2021/03/04 09:36:28;;;;;;;22.48;6.80;;;12.30;60.50;;;;;;5093858;28;21332;-73
2021/03/04 09:38:57;;;;;;;20.58;8.05;;;12.10;60.50;;;;;;5099262;28;20102;-74
2021/03/04 09:41:26;;;;;;;25.65;6.45;;;12.00;60.60;;;;;;5101015;28;20447;-73
2021/03/04 09:44:01;;;;;;;21.10;5.93;;;11.90;60.60;;;;;;5101727;28;20043;-72
2021/03/04 09:46:33;;;;;;;25.85;8.30;;;11.90;60.60;;;;;;5101994;28;20050;-72
2021/03/04 09:49:15;;;;;;;22.20;6.18;;;11.80;60.80;;;;;;5097662;28;20173;-74
2021/03/04 09:51:45;;;;;;;21.45;5.88;;;11.70;60.70;;;;;;5097162;28;20338;-72
2021/03/04 09:54:12;;;;;;;16.75;5.93;;;11.60;60.80;;;;;;5102515;28;20129;-72
2021/03/04 09:56:38;;;;;;;12.77;4.82;;;11.50;60.90;;;;;;5102363;28;20118;-72
2021/03/04 09:59:04;;;;;;;11.88;4.70;;;11.40;61.10;;;;;;5098163;28;20111;-72
2021/03/04 10:01:38;;;;;;;26.13;7.32;;;11.30;61.30;;;;;;5099915;28;20106;-73
2021/03/04 10:04:06;;;;;;;17.00;5.47;;;11.20;61.40;;;;;;5103871;28;20043;-74
2021/03/04 10:06:35;;;;;;;25.95;6.38;;;11.20;61.30;;;;;;5104313;28;20464;-73
2021/03/04 10:09:02;;;;;;;22.60;5.78;;;11.00;61.40;;;;;;5098391;28;20465;-73
2021/03/04 10:11:31;;;;;;;25.38;9.45;;;11.00;61.10;;;;;;5104136;28;20031;-72
2021/03/04 10:14:09;;;;;;;18.83;5.88;;;10.90;61.10;;;;;;5100774;28;20168;-73
2021/03/04 10:16:35;;;;;;;16.60;4.93;;;10.80;61.30;;;;;;5099512;28;20020;-73
2021/03/04 10:19:02;;;;;;;23.27;5.68;;;10.70;61.40;;;;;;5099732;28;20513;-75
2021/03/04 10:21:29;;;;;;;25.80;7.97;;;10.60;61.40;;;;;;5102581;28;20038;-76
2021/03/04 10:23:55;;;;;;;24.63;6.57;;;10.60;61.30;;;;;;5101240;28;20345;-75
2021/03/04 10:26:22;;;;;;;16.20;4.57;;;10.40;61.10;;;;;;5098565;28;20037;-73
2021/03/04 10:28:48;;;;;;;23.35;6.57;;;10.30;61.30;;;;;;5100243;28;20020;-72
2021/03/04 10:31:15;;;;;;;23.13;5.78;;;10.30;61.50;;;;;;5096620;28;20027;-72
2021/03/04 10:33:42;;;;;;;24.52;6.32;;;10.20;61.60;;;;;;5096656;28;20060;-74
2021/03/04 10:36:09;;;;;;;20.55;6.35;;;10.20;61.20;;;;;;5101995;28;20024;-74
2021/03/04 10:38:35;;;;;;;21.70;5.47;;;10.10;61.70;;;;;;5099024;28;20026;-74
2021/03/04 10:41:02;;;;;;;17.52;5.50;;;10.00;62.00;;;;;;5093825;28;20032;-74
2021/03/04 10:43:29;;;;;;;25.63;6.25;;;9.90;62.40;;;;;;5101258;28;20028;-73
2021/03/04 10:45:55;;;;;;;20.92;6.13;;;9.90;61.80;;;;;;5099376;28;20055;-73
2021/03/04 10:48:22;;;;;;;27.02;6.68;;;9.90;63.00;;;;;;5101050;28;20484;-73
2021/03/04 10:50:49;;;;;;;35.15;10.32;;;9.90;61.60;;;;;;5101016;28;20032;-73
2021/03/04 10:53:15;;;;;;;24.95;6.70;;;10.10;63.00;;;;;;5102142;28;20016;-74
2021/03/04 10:55:42;;;;;;;38.08;7.38;;;10.10;62.90;;;;;;5102281;28;20101;-73
2021/03/04 10:58:09;;;;;;;25.58;6.78;;;10.10;62.80;;;;;;5095843;28;20032;-73
2021/03/04 11:00:36;;;;;;;33.15;9.38;;;10.20;62.50;;;;;;5097746;28;20082;-73
2021/03/04 11:03:02;;;;;;;39.65;7.65;;;10.30;62.30;;;;;;5099348;28;20034;-74
2021/03/04 11:05:29;;;;;;;25.77;6.47;;;10.50;62.60;;;;;;5099166;28;20059;-74
2021/03/04 11:07:55;;;;;;;24.33;6.55;;;10.50;62.70;;;;;;5096409;28;20015;-74
2021/03/04 11:10:21;;;;;;;26.70;8.13;;;10.50;62.30;;;;;;5100049;28;20049;-73
2021/03/04 11:12:48;;;;;;;38.20;8.13;;;10.50;62.10;;;;;;5097465;28;20483;-73
2021/03/04 11:15:16;;;;;;;26.13;7.25;;;10.50;62.10;;;;;;5099729;28;20023;-75
2021/03/04 11:17:42;;;;;;;29.10;7.72;;;10.80;63.30;;;;;;5102349;28;20491;-73
2021/03/04 11:20:10;;;;;;;40.22;7.00;;;10.80;62.40;;;;;;5102242;28;20469;-74
2021/03/04 11:22:36;;;;;;;22.77;8.20;;;10.90;63.10;;;;;;5101759;28;20455;-73
2021/03/04 11:25:03;;;;;;;31.25;7.22;;;10.70;62.30;;;;;;5100399;28;20484;-73
2021/03/04 11:27:30;;;;;;;25.80;7.10;;;10.80;62.50;;;;;;5099021;28;20119;-74
2021/03/04 11:29:56;;;;;;;30.23;8.48;;;10.80;62.30;;;;;;5099198;28;20036;-75
2021/03/04 11:32:23;;;;;;;25.30;7.03;;;10.70;61.90;;;;;;5100680;28;20019;-73
2021/03/04 11:34:49;;;;;;;26.55;6.60;;;10.70;62.00;;;;;;5101118;28;20020;-74
2021/03/04 11:37:16;;;;;;;25.88;7.13;;;10.60;62.00;;;;;;5100172;28;20024;-74
2021/03/04 11:39:42;;;;;;;25.15;6.78;;;10.50;62.40;;;;;;5103554;28;20016;-74
2021/03/04 11:42:09;;;;;;;26.90;6.93;;;10.50;62.30;;;;;;5100360;28;20449;-74
2021/03/04 11:44:35;;;;;;;28.67;6.00;;;10.60;62.90;;;;;;5100127;28;20111;-73
2021/03/04 11:47:01;;;;;;;19.30;5.85;;;10.50;63.00;;;;;;5102761;28;20028;-74
2021/03/04 11:49:28;;;;;;;25.13;7.40;;;10.60;62.90;;;;;;5103299;28;20057;-74
2021/03/04 11:51:54;;;;;;;24.80;7.70;;;10.50;62.90;;;;;;5104530;28;20020;-73
2021/03/04 11:54:21;;;;;;;25.77;6.20;;;10.60;62.60;;;;;;5101990;28;20024;-73
2021/03/04 11:56:47;;;;;;;23.77;6.05;;;10.60;62.20;;;;;;5105665;27;20028;-74
2021/03/04 11:59:13;;;;;;;20.27;6.28;;;10.70;62.30;;;;;;5101504;28;20028;-75
2021/03/04 12:01:42;;;;;;;26.13;8.45;;;10.70;62.30;;;;;;5101958;28;20052;-74
2021/03/04 12:04:08;;;;;;;20.17;5.30;;;10.80;61.80;;;;;;5103626;28;20071;-74
2021/03/04 12:06:35;;;;;;;20.40;7.18;;;10.70;61.80;;;;;;5106675;28;20028;-73
2021/03/04 12:09:02;;;;;;;30.10;7.82;;;10.60;62.00;;;;;;5104778;28;20102;-74
2021/03/04 12:11:29;;;;;;;19.90;6.50;;;10.60;62.10;;;;;;5104588;28;20053;-74
2021/03/04 12:13:55;;;;;;;23.95;5.28;;;10.60;62.00;;;;;;5101300;28;20032;-75
2021/03/04 12:16:21;;;;;;;27.33;6.75;;;10.50;61.90;;;;;;5106395;28;20110;-75
2021/03/04 12:18:48;;;;;;;20.55;6.82;;;10.40;62.10;;;;;;5101675;28;20084;-73
2021/03/04 12:21:15;;;;;;;28.98;6.95;;;10.40;62.20;;;;;;5105163;28;20036;-74
2021/03/04 12:23:41;;;;;;;34.70;8.43;;;10.40;62.00;;;;;;5105626;28;20031;-75
2021/03/04 12:26:08;;;;;;;26.38;8.95;;;10.40;62.00;;;;;;5105554;28;20069;-74
2021/03/04 12:28:34;;;;;;;28.38;8.73;;;10.30;62.10;;;;;;5102202;28;20353;-74
2021/03/04 12:31:00;;;;;;;24.35;6.85;;;10.40;62.30;;;;;;5104549;28;20116;-74
2021/03/04 12:33:27;;;;;;;32.03;6.55;;;10.30;62.70;;;;;;5103770;28;20031;-74
2021/03/04 12:35:53;;;;;;;20.23;6.30;;;10.20;62.20;;;;;;5106437;27;20362;-73
2021/03/04 12:38:20;;;;;;;42.08;11.25;;;10.20;62.70;;;;;;5103277;28;20043;-74
2021/03/04 12:40:46;;;;;;;34.75;11.95;;;10.40;63.30;;;;;;5104580;28;20015;-74
2021/03/04 12:43:12;;;;;;;31.73;6.75;;;10.40;63.40;;;;;;5100753;28;20070;-73
2021/03/04 12:45:39;;;;;;;21.95;6.70;;;10.40;62.90;;;;;;5103237;28;20115;-73